PWSweather.com
Personal Weather Stations
Station Observations
WODONGA
Wodonga, WodongaAU 3690

WodongaWodongaAU 3690

Lat: -36.121, Lon: 146.87

Elevation: 541

Station Type: Weather Station

http://www.wodongaweather.net

High Low Average
Temperature 83.5°F28.6°F 61.0°F16.1°F 71.2°F21.8°F
Dew Point 69.5°F20.8°F 50.8°F10.4°F 61.1°F16.2°F
Winds 12.9 mph W20.8 mph W 0.2 mph 0.3 mph 5.4 mph 8.7 mph
Wind Gusts 21.3 mph34.3 mph 1.6 mph2.6 mph 9.0 mph14.5 mph
Humidity 98% 49% 72%
Pressure 29.70 in1005.80 in 29.39 in995.30 in -
Precipitation 9.05 in229.90 in - -
Hour Temp Dew Point Humidity Winds Wind Gusts Pressure Precip Precip Rate Daily Precip Total
12:00 AM 75.7°F24.3°C 57.9°F14.4°C 54% 1.8 mph S2.9 kmh S 3.1 mph5.0 kmh 29.53 in1000.0 mb 0.00 in0.0 mm 0.00 in0.0 mm 0.00 in0.0 mm
12:05 AM 75.7°F24.3°C 58.5°F14.7°C 55% 1.0 mph S1.6 kmh S 3.1 mph5.0 kmh 29.54 in1000.3 mb 0.00 in0.0 mm 0.00 in0.0 mm 0.00 in0.0 mm
12:10 AM 75.7°F24.3°C 58.5°F14.7°C 55% 1.5 mph SSE2.4 kmh SSE 3.1 mph5.0 kmh 29.53 in1000.0 mb 0.00 in0.0 mm 0.00 in0.0 mm 0.00 in0.0 mm
12:15 AM 75.6°F24.2°C 58.3°F14.6°C 55% 2.3 mph SE3.7 kmh SE 3.8 mph6.1 kmh 29.53 in1000.0 mb 0.00 in0.0 mm 0.00 in0.0 mm 0.00 in0.0 mm
12:20 AM 75.6°F24.2°C 58.8°F14.9°C 56% 1.9 mph ENE3.1 kmh ENE 3.8 mph6.1 kmh 29.52 in999.7 mb 0.00 in0.0 mm 0.00 in0.0 mm 0.00 in0.0 mm
12:25 AM 75.6°F24.2°C 58.3°F14.6°C 55% 2.8 mph NE4.5 kmh NE 7.6 mph12.2 kmh 29.53 in1000.0 mb 0.00 in0.0 mm 0.00 in0.0 mm 0.00 in0.0 mm
12:30 AM 75.9°F24.4°C 58.1°F14.5°C 54% 4.0 mph N6.4 kmh N 7.6 mph12.2 kmh 29.53 in1000.0 mb 0.00 in0.0 mm 0.00 in0.0 mm 0.00 in0.0 mm
12:35 AM 76.3°F24.6°C 58.5°F14.7°C 54% 5.1 mph N8.2 kmh N 7.6 mph12.2 kmh 29.53 in1000.0 mb 0.00 in0.0 mm 0.00 in0.0 mm 0.00 in0.0 mm
12:40 AM 76.3°F24.6°C 58.5°F14.7°C 54% 4.4 mph N7.1 kmh N 7.6 mph12.2 kmh 29.52 in999.7 mb 0.00 in0.0 mm 0.00 in0.0 mm 0.00 in0.0 mm
12:45 AM 76.5°F24.7°C 58.6°F14.8°C 54% 5.3 mph N8.5 kmh N 10.7 mph17.2 kmh 29.53 in1000.0 mb 0.00 in0.0 mm 0.00 in0.0 mm 0.00 in0.0 mm
12:50 AM 76.6°F24.8°C 59.3°F15.2°C 55% 7.1 mph N11.4 kmh N 10.7 mph17.2 kmh 29.53 in1000.0 mb 0.00 in0.0 mm 0.00 in0.0 mm 0.00 in0.0 mm
12:55 AM 76.8°F24.9°C 59.0°F15.0°C 54% 6.4 mph NNW10.3 kmh NNW 9.2 mph14.8 kmh 29.53 in1000.0 mb 0.00 in0.0 mm 0.00 in0.0 mm 0.00 in0.0 mm
01:00 AM 76.8°F24.9°C 59.5°F15.3°C 55% 4.8 mph NW7.7 kmh NW 9.2 mph14.8 kmh 29.53 in1000.0 mb 0.00 in0.0 mm 0.00 in0.0 mm 0.00 in0.0 mm
01:05 AM 76.8°F24.9°C 59.5°F15.3°C 55% 3.1 mph NNW5.0 kmh NNW 5.4 mph8.7 kmh 29.54 in1000.3 mb 0.00 in0.0 mm 0.00 in0.0 mm 0.00 in0.0 mm
01:10 AM 76.6°F24.8°C 59.3°F15.2°C 55% 3.3 mph E5.3 kmh E 4.5 mph7.2 kmh 29.53 in1000.0 mb 0.00 in0.0 mm 0.00 in0.0 mm 0.00 in0.0 mm
01:15 AM 76.5°F24.7°C 59.6°F15.3°C 56% 3.2 mph SE5.1 kmh SE 4.5 mph7.2 kmh 29.52 in999.7 mb 0.00 in0.0 mm 0.00 in0.0 mm 0.00 in0.0 mm
01:20 AM 76.5°F24.7°C 59.6°F15.3°C 56% 2.5 mph SE4.0 kmh SE 3.1 mph5.0 kmh 29.52 in999.7 mb 0.00 in0.0 mm 0.00 in0.0 mm 0.00 in0.0 mm
01:25 AM 76.1°F24.5°C 59.3°F15.2°C 56% 2.1 mph SE3.4 kmh SE 3.1 mph5.0 kmh 29.51 in999.3 mb 0.00 in0.0 mm 0.00 in0.0 mm 0.00 in0.0 mm
01:30 AM 76.1°F24.5°C 59.8°F15.4°C 57% 1.8 mph SSE2.9 kmh SSE 2.2 mph3.5 kmh 29.51 in999.3 mb 0.00 in0.0 mm 0.00 in0.0 mm 0.00 in0.0 mm
01:35 AM 75.7°F24.3°C 59.9°F15.5°C 58% 1.5 mph S2.4 kmh S 2.2 mph3.5 kmh 29.52 in999.7 mb 0.00 in0.0 mm 0.00 in0.0 mm 0.00 in0.0 mm
01:40 AM 75.6°F24.2°C 59.8°F15.4°C 58% 1.6 mph SSW2.6 kmh SSW 3.1 mph5.0 kmh 29.51 in999.3 mb 0.00 in0.0 mm 0.00 in0.0 mm 0.00 in0.0 mm
01:45 AM 75.4°F24.1°C 59.6°F15.3°C 58% 2.2 mph S3.5 kmh S 3.8 mph6.1 kmh 29.50 in999.0 mb 0.00 in0.0 mm 0.00 in0.0 mm 0.00 in0.0 mm
01:50 AM 75.2°F24.0°C 59.9°F15.5°C 59% 2.7 mph SE4.3 kmh SE 3.8 mph6.1 kmh 29.51 in999.3 mb 0.00 in0.0 mm 0.00 in0.0 mm 0.00 in0.0 mm
01:55 AM 75.0°F23.9°C 59.8°F15.4°C 59% 2.5 mph SE4.0 kmh SE 3.8 mph6.1 kmh 29.50 in999.0 mb 0.00 in0.0 mm 0.00 in0.0 mm 0.00 in0.0 mm
02:00 AM 75.0°F23.9°C 59.8°F15.4°C 59% 2.5 mph SSE4.0 kmh SSE 3.1 mph5.0 kmh 29.50 in999.0 mb 0.00 in0.0 mm 0.00 in0.0 mm 0.00 in0.0 mm
02:05 AM 74.8°F23.8°C 60.1°F15.6°C 60% 3.1 mph SE5.0 kmh SE 4.5 mph7.2 kmh 29.50 in999.0 mb 0.00 in0.0 mm 0.00 in0.0 mm 0.00 in0.0 mm
02:10 AM 74.8°F23.8°C 60.1°F15.6°C 60% 2.9 mph SE4.7 kmh SE 4.5 mph7.2 kmh 29.50 in999.0 mb 0.00 in0.0 mm 0.00 in0.0 mm 0.00 in0.0 mm
02:15 AM 74.7°F23.7°C 59.9°F15.5°C 60% 2.7 mph SE4.3 kmh SE 3.8 mph6.1 kmh 29.49 in998.6 mb 0.00 in0.0 mm 0.00 in0.0 mm 0.00 in0.0 mm
02:20 AM 74.7°F23.7°C 59.9°F15.5°C 60% 3.4 mph SE5.5 kmh SE 4.5 mph7.2 kmh 29.48 in998.3 mb 0.00 in0.0 mm 0.00 in0.0 mm 0.00 in0.0 mm
02:25 AM 74.7°F23.7°C 59.9°F15.5°C 60% 4.0 mph SE6.4 kmh SE 5.4 mph8.7 kmh 29.48 in998.3 mb 0.00 in0.0 mm 0.00 in0.0 mm 0.00 in0.0 mm
02:30 AM 74.7°F23.7°C 59.9°F15.5°C 60% 4.2 mph SE6.8 kmh SE 5.4 mph8.7 kmh 29.47 in998.0 mb 0.00 in0.0 mm 0.00 in0.0 mm 0.00 in0.0 mm
02:35 AM 74.7°F23.7°C 59.4°F15.2°C 59% 4.4 mph SE7.1 kmh SE 6.0 mph9.7 kmh 29.46 in997.6 mb 0.00 in0.0 mm 0.00 in0.0 mm 0.00 in0.0 mm
02:40 AM 74.7°F23.7°C 59.4°F15.2°C 59% 5.1 mph SE8.2 kmh SE 6.9 mph11.1 kmh 29.45 in997.3 mb 0.00 in0.0 mm 0.00 in0.0 mm 0.00 in0.0 mm
02:45 AM 74.5°F23.6°C 59.2°F15.1°C 59% 5.5 mph SE8.9 kmh SE 6.9 mph11.1 kmh 29.44 in997.0 mb 0.00 in0.0 mm 0.00 in0.0 mm 0.00 in0.0 mm
02:50 AM 74.3°F23.5°C 59.5°F15.3°C 60% 6.6 mph E10.6 kmh E 9.2 mph14.8 kmh 29.43 in996.6 mb 0.00 in0.0 mm 0.00 in0.0 mm 0.00 in0.0 mm
02:55 AM 74.3°F23.5°C 59.5°F15.3°C 60% 7.1 mph E11.4 kmh E 9.2 mph14.8 kmh 29.42 in996.3 mb 0.00 in0.0 mm 0.00 in0.0 mm 0.00 in0.0 mm
03:00 AM 74.3°F23.5°C 59.5°F15.3°C 60% 5.7 mph ESE9.2 kmh ESE 8.3 mph13.4 kmh 29.41 in995.9 mb 0.00 in0.0 mm 0.00 in0.0 mm 0.00 in0.0 mm
03:05 AM 74.3°F23.5°C 59.5°F15.3°C 60% 4.5 mph SE7.2 kmh SE 6.9 mph11.1 kmh 29.41 in995.9 mb 0.00 in0.0 mm 0.00 in0.0 mm 0.00 in0.0 mm
03:10 AM 74.3°F23.5°C 59.5°F15.3°C 60% 4.4 mph SE7.1 kmh SE 6.0 mph9.7 kmh 29.43 in996.6 mb 0.00 in0.0 mm 0.00 in0.0 mm 0.00 in0.0 mm
03:15 AM 74.3°F23.5°C 59.5°F15.3°C 60% 4.6 mph WSW7.4 kmh WSW 6.0 mph9.7 kmh 29.48 in998.3 mb 0.00 in0.0 mm 0.00 in0.0 mm 0.00 in0.0 mm
03:20 AM 73.6°F23.1°C 62.0°F16.7°C 67% 4.4 mph NW7.1 kmh NW 9.2 mph14.8 kmh 29.45 in997.3 mb 0.03 in0.8 mm 0.36 in9.1 mm 0.03 in0.8 mm
03:25 AM 72.3°F22.4°C 62.4°F16.9°C 71% 4.0 mph E6.4 kmh E 9.2 mph14.8 kmh 29.45 in997.3 mb 0.05 in1.3 mm 0.24 in6.1 mm 0.05 in1.3 mm
03:30 AM 71.4°F21.9°C 62.7°F17.1°C 74% 3.6 mph SSE5.8 kmh SSE 9.2 mph14.8 kmh 29.44 in997.0 mb 0.05 in1.3 mm 0.00 in0.0 mm 0.05 in1.3 mm
03:35 AM 70.9°F21.6°C 63.3°F17.4°C 77% 3.5 mph SE5.6 kmh SE 4.5 mph7.2 kmh 29.43 in996.6 mb 0.05 in1.3 mm 0.00 in0.0 mm 0.05 in1.3 mm
03:40 AM 70.5°F21.4°C 63.4°F17.4°C 78% 3.3 mph SE5.3 kmh SE 4.5 mph7.2 kmh 29.44 in997.0 mb 0.05 in1.3 mm 0.00 in0.0 mm 0.05 in1.3 mm
03:45 AM 70.2°F21.2°C 63.4°F17.4°C 79% 3.2 mph SSE5.1 kmh SSE 4.5 mph7.2 kmh 29.44 in997.0 mb 0.05 in1.3 mm 0.00 in0.0 mm 0.05 in1.3 mm
03:50 AM 69.8°F21.0°C 63.7°F17.6°C 81% 3.8 mph S6.1 kmh S 4.5 mph7.2 kmh 29.45 in997.3 mb 0.05 in1.3 mm 0.00 in0.0 mm 0.05 in1.3 mm
03:55 AM 69.4°F20.8°C 63.4°F17.4°C 81% 5.0 mph S8.0 kmh S 7.6 mph12.2 kmh 29.47 in998.0 mb 0.05 in1.3 mm 0.00 in0.0 mm 0.05 in1.3 mm
04:00 AM 69.3°F20.7°C 63.2°F17.3°C 81% 5.4 mph S8.7 kmh S 7.6 mph12.2 kmh 29.50 in999.0 mb 0.08 in2.0 mm 0.03 in0.8 mm 0.08 in2.0 mm
04:05 AM 68.9°F20.5°C 62.9°F17.2°C 81% 4.8 mph S7.7 kmh S 6.9 mph11.1 kmh 29.52 in999.7 mb 0.11 in2.8 mm 0.36 in9.1 mm 0.11 in2.8 mm
04:10 AM 68.4°F20.2°C 62.7°F17.1°C 82% 4.9 mph SSW7.9 kmh SSW 7.6 mph12.2 kmh 29.52 in999.7 mb 0.14 in3.6 mm 0.36 in9.1 mm 0.14 in3.6 mm
04:15 AM 68.2°F20.1°C 62.8°F17.1°C 83% 4.9 mph S7.9 kmh S 7.6 mph12.2 kmh 29.52 in999.7 mb 0.15 in3.8 mm 0.12 in3.0 mm 0.17 in4.3 mm
04:20 AM 67.8°F19.9°C 63.2°F17.3°C 85% 4.6 mph S7.4 kmh S 6.9 mph11.1 kmh 29.53 in1000.0 mb 0.15 in3.8 mm 0.00 in0.0 mm 0.18 in4.6 mm
04:25 AM 67.5°F19.7°C 63.2°F17.3°C 86% 3.7 mph S6.0 kmh S 6.9 mph11.1 kmh 29.52 in999.7 mb 0.15 in3.8 mm 0.00 in0.0 mm 0.20 in5.1 mm
04:30 AM 67.6°F19.8°C 63.7°F17.6°C 87% 2.7 mph SSE4.3 kmh SSE 4.5 mph7.2 kmh 29.51 in999.3 mb 0.15 in3.8 mm 0.00 in0.0 mm 0.20 in5.1 mm
04:35 AM 67.6°F19.8°C 63.7°F17.6°C 87% 2.9 mph SE4.7 kmh SE 3.8 mph6.1 kmh 29.51 in999.3 mb 0.17 in4.3 mm 0.24 in6.1 mm 0.21 in5.3 mm
04:40 AM 67.3°F19.6°C 63.6°F17.6°C 88% 3.9 mph SE6.3 kmh SE 5.4 mph8.7 kmh 29.49 in998.6 mb 0.17 in4.3 mm 0.00 in0.0 mm 0.21 in5.3 mm
04:45 AM 67.5°F19.7°C 63.8°F17.7°C 88% 4.9 mph SE7.9 kmh SE 6.0 mph9.7 kmh 29.47 in998.0 mb 0.18 in4.6 mm 0.12 in3.0 mm 0.23 in5.8 mm
04:50 AM 67.3°F19.6°C 64.0°F17.8°C 89% 4.5 mph SE7.2 kmh SE 6.0 mph9.7 kmh 29.48 in998.3 mb 0.18 in4.6 mm 0.00 in0.0 mm 0.23 in5.8 mm
04:55 AM 67.3°F19.6°C 64.0°F17.8°C 89% 3.6 mph SE5.8 kmh SE 5.4 mph8.7 kmh 29.46 in997.6 mb 0.18 in4.6 mm 0.00 in0.0 mm 0.23 in5.8 mm
05:00 AM 67.3°F19.6°C 64.0°F17.8°C 89% 3.3 mph SE5.3 kmh SE 4.5 mph7.2 kmh 29.46 in997.6 mb 0.14 in3.6 mm 0.00 in0.0 mm 0.23 in5.8 mm
05:05 AM 67.3°F19.6°C 64.3°F17.9°C 90% 3.2 mph SE5.1 kmh SE 4.5 mph7.2 kmh 29.46 in997.6 mb 0.12 in3.0 mm 0.00 in0.0 mm 0.23 in5.8 mm
05:10 AM 67.3°F19.6°C 64.3°F17.9°C 90% 2.8 mph SE4.5 kmh SE 4.5 mph7.2 kmh 29.46 in997.6 mb 0.09 in2.3 mm 0.00 in0.0 mm 0.23 in5.8 mm
05:15 AM 67.1°F19.5°C 64.1°F17.8°C 90% 3.0 mph SE4.8 kmh SE 6.0 mph9.7 kmh 29.46 in997.6 mb 0.06 in1.5 mm 0.00 in0.0 mm 0.23 in5.8 mm
05:20 AM 66.9°F19.4°C 63.9°F17.7°C 90% 2.9 mph SE4.7 kmh SE 6.0 mph9.7 kmh 29.46 in997.6 mb 0.05 in1.3 mm 0.00 in0.0 mm 0.23 in5.8 mm
05:25 AM 67.1°F19.5°C 64.1°F17.8°C 90% 3.1 mph SE5.0 kmh SE 4.5 mph7.2 kmh 29.45 in997.3 mb 0.03 in0.8 mm 0.00 in0.0 mm 0.23 in5.8 mm
05:30 AM 66.9°F19.4°C 63.9°F17.7°C 90% 3.7 mph SE6.0 kmh SE 4.5 mph7.2 kmh 29.46 in997.6 mb 0.02 in0.5 mm 0.00 in0.0 mm 0.23 in5.8 mm
05:35 AM 67.1°F19.5°C 64.1°F17.8°C 90% 3.8 mph SE6.1 kmh SE 6.0 mph9.7 kmh 29.45 in997.3 mb 0.02 in0.5 mm 0.00 in0.0 mm 0.23 in5.8 mm
05:40 AM 66.9°F19.4°C 64.2°F17.9°C 91% 3.8 mph ESE6.1 kmh ESE 6.0 mph9.7 kmh 29.45 in997.3 mb 0.02 in0.5 mm 0.00 in0.0 mm 0.23 in5.8 mm
05:45 AM 66.9°F19.4°C 64.2°F17.9°C 91% 3.3 mph E5.3 kmh E 4.5 mph7.2 kmh 29.46 in997.6 mb 0.00 in0.0 mm 0.00 in0.0 mm 0.23 in5.8 mm
05:50 AM 66.7°F19.3°C 64.1°F17.8°C 91% 3.4 mph E5.5 kmh E 5.4 mph8.7 kmh 29.46 in997.6 mb 0.00 in0.0 mm 0.00 in0.0 mm 0.23 in5.8 mm
05:55 AM 66.6°F19.2°C 63.9°F17.7°C 91% 3.1 mph E5.0 kmh E 5.4 mph8.7 kmh 29.46 in997.6 mb 0.00 in0.0 mm 0.00 in0.0 mm 0.23 in5.8 mm
06:00 AM 66.7°F19.3°C 64.1°F17.8°C 91% 4.1 mph E6.6 kmh E 6.9 mph11.1 kmh 29.45 in997.3 mb 0.00 in0.0 mm 0.00 in0.0 mm 0.23 in5.8 mm
06:05 AM 66.9°F19.4°C 64.2°F17.9°C 91% 5.4 mph E8.7 kmh E 7.6 mph12.2 kmh 29.46 in997.6 mb 0.00 in0.0 mm 0.00 in0.0 mm 0.23 in5.8 mm
06:10 AM 66.9°F19.4°C 63.9°F17.7°C 90% 5.9 mph E9.5 kmh E 8.3 mph13.4 kmh 29.45 in997.3 mb 0.00 in0.0 mm 0.00 in0.0 mm 0.23 in5.8 mm
06:15 AM 66.9°F19.4°C 63.9°F17.7°C 90% 5.2 mph E8.4 kmh E 8.3 mph13.4 kmh 29.47 in998.0 mb 0.00 in0.0 mm 0.00 in0.0 mm 0.23 in5.8 mm
06:20 AM 66.7°F19.3°C 63.7°F17.6°C 90% 3.2 mph E5.1 kmh E 6.0 mph9.7 kmh 29.47 in998.0 mb 0.00 in0.0 mm 0.00 in0.0 mm 0.23 in5.8 mm
06:25 AM 66.7°F19.3°C 63.7°F17.6°C 90% 2.1 mph ENE3.4 kmh ENE 4.5 mph7.2 kmh 29.47 in998.0 mb 0.02 in0.5 mm 0.24 in6.1 mm 0.25 in6.4 mm
06:30 AM 66.9°F19.4°C 64.2°F17.9°C 91% 1.4 mph NE2.3 kmh NE 3.8 mph6.1 kmh 29.48 in998.3 mb 0.02 in0.5 mm 0.00 in0.0 mm 0.25 in6.4 mm
06:35 AM 67.1°F19.5°C 64.4°F18.0°C 91% 1.2 mph E1.9 kmh E 3.1 mph5.0 kmh 29.48 in998.3 mb 0.03 in0.8 mm 0.12 in3.0 mm 0.26 in6.6 mm
06:40 AM 67.1°F19.5°C 64.4°F18.0°C 91% 2.3 mph SE3.7 kmh SE 3.8 mph6.1 kmh 29.47 in998.0 mb 0.03 in0.8 mm 0.00 in0.0 mm 0.26 in6.6 mm
06:45 AM 66.9°F19.4°C 64.5°F18.1°C 92% 3.1 mph ESE5.0 kmh ESE 5.4 mph8.7 kmh 29.48 in998.3 mb 0.06 in1.5 mm 0.36 in9.1 mm 0.29 in7.4 mm
06:50 AM 66.7°F19.3°C 64.4°F18.0°C 92% 3.8 mph E6.1 kmh E 6.0 mph9.7 kmh 29.48 in998.3 mb 0.09 in2.3 mm 0.36 in9.1 mm 0.32 in8.1 mm
06:55 AM 66.6°F19.2°C 64.2°F17.9°C 92% 3.4 mph ESE5.5 kmh ESE 6.0 mph9.7 kmh 29.48 in998.3 mb 0.12 in3.0 mm 0.36 in9.1 mm 0.35 in8.9 mm
07:00 AM 66.6°F19.2°C 64.5°F18.1°C 93% 2.3 mph SSE3.7 kmh SSE 5.4 mph8.7 kmh 29.49 in998.6 mb 0.17 in4.3 mm 0.05 in1.3 mm 0.40 in10.2 mm
07:05 AM 66.4°F19.1°C 64.3°F17.9°C 93% 2.0 mph S3.2 kmh S 3.1 mph5.0 kmh 29.49 in998.6 mb 0.20 in5.1 mm 0.36 in9.1 mm 0.43 in10.9 mm
07:10 AM 66.2°F19.0°C 64.4°F18.0°C 94% 2.3 mph ESE3.7 kmh ESE 4.5 mph7.2 kmh 29.48 in998.3 mb 0.25 in6.4 mm 0.60 in15.2 mm 0.48 in12.2 mm
07:15 AM 66.2°F19.0°C 64.4°F18.0°C 94% 3.5 mph E5.6 kmh E 4.5 mph7.2 kmh 29.48 in998.3 mb 0.28 in7.1 mm 0.36 in9.1 mm 0.51 in13.0 mm
07:20 AM 66.2°F19.0°C 64.4°F18.0°C 94% 3.3 mph ENE5.3 kmh ENE 4.5 mph7.2 kmh 29.46 in997.6 mb 0.31 in7.9 mm 0.36 in9.1 mm 0.54 in13.7 mm
07:25 AM 66.2°F19.0°C 64.8°F18.2°C 95% 2.5 mph ENE4.0 kmh ENE 3.1 mph5.0 kmh 29.47 in998.0 mb 0.31 in7.9 mm 0.00 in0.0 mm 0.55 in14.0 mm
07:30 AM 66.4°F19.1°C 64.6°F18.1°C 94% 2.1 mph E3.4 kmh E 3.1 mph5.0 kmh 29.46 in997.6 mb 0.32 in8.1 mm 0.12 in3.0 mm 0.57 in14.5 mm
07:35 AM 66.4°F19.1°C 64.9°F18.3°C 95% 2.0 mph ESE3.2 kmh ESE 3.1 mph5.0 kmh 29.46 in997.6 mb 0.34 in8.6 mm 0.24 in6.1 mm 0.60 in15.2 mm
07:40 AM 66.6°F19.2°C 65.1°F18.4°C 95% 2.8 mph ESE4.5 kmh ESE 5.4 mph8.7 kmh 29.45 in997.3 mb 0.35 in8.9 mm 0.12 in3.0 mm 0.61 in15.5 mm
07:45 AM 66.6°F19.2°C 65.1°F18.4°C 95% 3.6 mph ESE5.8 kmh ESE 5.4 mph8.7 kmh 29.45 in997.3 mb 0.32 in8.1 mm 0.00 in0.0 mm 0.61 in15.5 mm
07:50 AM 66.4°F19.1°C 64.9°F18.3°C 95% 3.7 mph ESE6.0 kmh ESE 5.4 mph8.7 kmh 29.44 in997.0 mb 0.29 in7.4 mm 0.00 in0.0 mm 0.61 in15.5 mm
07:55 AM 66.4°F19.1°C 64.9°F18.3°C 95% 2.8 mph SE4.5 kmh SE 3.8 mph6.1 kmh 29.44 in997.0 mb 0.26 in6.6 mm 0.00 in0.0 mm 0.61 in15.5 mm
08:00 AM 66.2°F19.0°C 64.8°F18.2°C 95% 1.3 mph SE2.1 kmh SE 3.8 mph6.1 kmh 29.44 in997.0 mb 0.23 in5.8 mm 0.00 in0.0 mm 0.63 in16.0 mm
08:05 AM 66.2°F19.0°C 64.8°F18.2°C 95% 0.9 mph S1.4 kmh S 3.8 mph6.1 kmh 29.44 in997.0 mb 0.21 in5.3 mm 0.00 in0.0 mm 0.66 in16.8 mm
08:10 AM 66.2°F19.0°C 64.8°F18.2°C 95% 1.2 mph S1.9 kmh S 3.8 mph6.1 kmh 29.43 in996.6 mb 0.18 in4.6 mm 0.00 in0.0 mm 0.66 in16.8 mm
08:15 AM 66.4°F19.1°C 64.9°F18.3°C 95% 0.8 mph SW1.3 kmh SW 2.2 mph3.5 kmh 29.43 in996.6 mb 0.15 in3.8 mm 0.00 in0.0 mm 0.66 in16.8 mm
08:20 AM 66.6°F19.2°C 65.1°F18.4°C 95% 0.3 mph SW0.5 kmh SW 1.6 mph2.6 kmh 29.43 in996.6 mb 0.12 in3.0 mm 0.00 in0.0 mm 0.66 in16.8 mm
08:25 AM 66.9°F19.4°C 65.5°F18.6°C 95% 0.7 mph SSE1.1 kmh SSE 1.6 mph2.6 kmh 29.42 in996.3 mb 0.11 in2.8 mm 0.00 in0.0 mm 0.66 in16.8 mm
08:30 AM 67.1°F19.5°C 65.6°F18.7°C 95% 1.6 mph SE2.6 kmh SE 3.1 mph5.0 kmh 29.42 in996.3 mb 0.09 in2.3 mm 0.00 in0.0 mm 0.66 in16.8 mm
08:35 AM 67.3°F19.6°C 65.8°F18.8°C 95% 2.1 mph SE3.4 kmh SE 3.1 mph5.0 kmh 29.42 in996.3 mb 0.06 in1.5 mm 0.00 in0.0 mm 0.66 in16.8 mm
08:40 AM 67.3°F19.6°C 65.8°F18.8°C 95% 1.9 mph SSE3.1 kmh SSE 3.1 mph5.0 kmh 29.41 in995.9 mb 0.05 in1.3 mm 0.00 in0.0 mm 0.66 in16.8 mm
08:45 AM 67.5°F19.7°C 66.0°F18.9°C 95% 1.2 mph SSE1.9 kmh SSE 2.2 mph3.5 kmh 29.41 in995.9 mb 0.05 in1.3 mm 0.00 in0.0 mm 0.66 in16.8 mm
08:50 AM 67.5°F19.7°C 66.3°F19.1°C 96% 1.1 mph S1.8 kmh S 2.2 mph3.5 kmh 29.41 in995.9 mb 0.05 in1.3 mm 0.00 in0.0 mm 0.66 in16.8 mm
08:55 AM 67.8°F19.9°C 66.4°F19.1°C 95% 1.0 mph S1.6 kmh S 2.2 mph3.5 kmh 29.40 in995.6 mb 0.05 in1.3 mm 0.00 in0.0 mm 0.66 in16.8 mm
09:00 AM 67.6°F19.8°C 66.2°F19.0°C 95% 1.0 mph S1.6 kmh S 2.2 mph3.5 kmh 29.40 in995.6 mb 0.03 in0.8 mm 0.00 in0.0 mm 0.66 in16.8 mm
09:05 AM 67.8°F19.9°C 66.4°F19.1°C 95% 1.1 mph WSW1.8 kmh WSW 2.2 mph3.5 kmh 29.40 in995.6 mb 0.00 in0.0 mm 0.00 in0.0 mm 0.66 in16.8 mm
09:10 AM 67.8°F19.9°C 66.4°F19.1°C 95% 1.5 mph WNW2.4 kmh WNW 3.1 mph5.0 kmh 29.40 in995.6 mb 0.00 in0.0 mm 0.00 in0.0 mm 0.66 in16.8 mm
09:15 AM 67.6°F19.8°C 66.2°F19.0°C 95% 2.6 mph WNW4.2 kmh WNW 4.5 mph7.2 kmh 29.40 in995.6 mb 0.03 in0.8 mm 0.36 in9.1 mm 0.69 in17.5 mm
09:20 AM 67.5°F19.7°C 66.0°F18.9°C 95% 3.2 mph W5.1 kmh W 4.5 mph7.2 kmh 29.41 in995.9 mb 0.03 in0.8 mm 0.00 in0.0 mm 0.69 in17.5 mm
09:25 AM 67.3°F19.6°C 65.8°F18.8°C 95% 2.6 mph WSW4.2 kmh WSW 4.5 mph7.2 kmh 29.40 in995.6 mb 0.05 in1.3 mm 0.24 in6.1 mm 0.71 in18.0 mm
09:30 AM 67.3°F19.6°C 65.8°F18.8°C 95% 2.3 mph W3.7 kmh W 3.8 mph6.1 kmh 29.40 in995.6 mb 0.05 in1.3 mm 0.00 in0.0 mm 0.71 in18.0 mm
09:35 AM 67.3°F19.6°C 66.1°F18.9°C 96% 2.9 mph W4.7 kmh W 4.5 mph7.2 kmh 29.40 in995.6 mb 0.05 in1.3 mm 0.00 in0.0 mm 0.71 in18.0 mm
09:40 AM 67.3°F19.6°C 66.1°F18.9°C 96% 3.4 mph W5.5 kmh W 4.5 mph7.2 kmh 29.41 in995.9 mb 0.05 in1.3 mm 0.00 in0.0 mm 0.71 in18.0 mm
09:45 AM 67.3°F19.6°C 66.1°F18.9°C 96% 3.8 mph WNW6.1 kmh WNW 6.0 mph9.7 kmh 29.40 in995.6 mb 0.05 in1.3 mm 0.00 in0.0 mm 0.71 in18.0 mm
09:50 AM 67.1°F19.5°C 66.0°F18.9°C 96% 3.9 mph WNW6.3 kmh WNW 6.0 mph9.7 kmh 29.40 in995.6 mb 0.05 in1.3 mm 0.00 in0.0 mm 0.71 in18.0 mm
09:55 AM 67.1°F19.5°C 66.0°F18.9°C 96% 3.9 mph WNW6.3 kmh WNW 5.4 mph8.7 kmh 29.40 in995.6 mb 0.05 in1.3 mm 0.00 in0.0 mm 0.71 in18.0 mm
10:00 AM 67.1°F19.5°C 66.0°F18.9°C 96% 4.8 mph NW7.7 kmh NW 6.9 mph11.1 kmh 29.39 in995.3 mb 0.05 in1.3 mm 0.00 in0.0 mm 0.71 in18.0 mm
10:05 AM 67.1°F19.5°C 66.3°F19.1°C 97% 5.5 mph NW8.9 kmh NW 6.9 mph11.1 kmh 29.40 in995.6 mb 0.06 in1.5 mm 0.12 in3.0 mm 0.72 in18.3 mm
10:10 AM 67.1°F19.5°C 66.3°F19.1°C 97% 5.2 mph NW8.4 kmh NW 7.6 mph12.2 kmh 29.39 in995.3 mb 0.06 in1.5 mm 0.00 in0.0 mm 0.72 in18.3 mm
10:15 AM 67.1°F19.5°C 66.3°F19.1°C 97% 5.2 mph NW8.4 kmh NW 7.6 mph12.2 kmh 29.40 in995.6 mb 0.03 in0.8 mm 0.00 in0.0 mm 0.72 in18.3 mm
10:20 AM 67.3°F19.6°C 66.7°F19.3°C 98% 6.1 mph NW9.8 kmh NW 8.3 mph13.4 kmh 29.40 in995.6 mb 0.03 in0.8 mm 0.00 in0.0 mm 0.72 in18.3 mm
10:25 AM 67.5°F19.7°C 66.9°F19.4°C 98% 6.1 mph NW9.8 kmh NW 9.2 mph14.8 kmh 29.40 in995.6 mb 0.02 in0.5 mm 0.00 in0.0 mm 0.72 in18.3 mm
10:30 AM 67.8°F19.9°C 67.3°F19.6°C 98% 5.7 mph W9.2 kmh W 9.2 mph14.8 kmh 29.40 in995.6 mb 0.03 in0.8 mm 0.12 in3.0 mm 0.74 in18.8 mm
10:35 AM 68.0°F20.0°C 67.4°F19.7°C 98% 7.7 mph WNW12.4 kmh WNW 13.0 mph20.9 kmh 29.41 in995.9 mb 0.03 in0.8 mm 0.00 in0.0 mm 0.74 in18.8 mm
10:40 AM 68.2°F20.1°C 67.6°F19.8°C 98% 8.9 mph WNW14.3 kmh WNW 13.0 mph20.9 kmh 29.41 in995.9 mb 0.03 in0.8 mm 0.00 in0.0 mm 0.74 in18.8 mm
10:45 AM 68.4°F20.2°C 67.8°F19.9°C 98% 8.8 mph WNW14.2 kmh WNW 13.0 mph20.9 kmh 29.41 in995.9 mb 0.03 in0.8 mm 0.00 in0.0 mm 0.74 in18.8 mm
10:50 AM 68.5°F20.3°C 68.0°F20.0°C 98% 9.5 mph NW15.3 kmh NW 13.0 mph20.9 kmh 29.41 in995.9 mb 0.05 in1.3 mm 0.24 in6.1 mm 0.75 in19.1 mm
10:55 AM 68.9°F20.5°C 68.3°F20.2°C 98% 8.7 mph WNW14.0 kmh WNW 11.4 mph18.3 kmh 29.41 in995.9 mb 0.05 in1.3 mm 0.00 in0.0 mm 0.75 in19.1 mm
11:00 AM 69.6°F20.9°C 69.1°F20.6°C 98% 6.7 mph WNW10.8 kmh WNW 9.8 mph15.8 kmh 29.40 in995.6 mb 0.05 in1.3 mm 0.00 in0.0 mm 0.75 in19.1 mm
11:05 AM 70.0°F21.1°C 69.1°F20.6°C 97% 5.9 mph W9.5 kmh W 9.2 mph14.8 kmh 29.40 in995.6 mb 0.03 in0.8 mm 0.00 in0.0 mm 0.75 in19.1 mm
11:10 AM 70.3°F21.3°C 69.5°F20.8°C 97% 6.6 mph W10.6 kmh W 9.2 mph14.8 kmh 29.41 in995.9 mb 0.03 in0.8 mm 0.00 in0.0 mm 0.75 in19.1 mm
11:15 AM 70.5°F21.4°C 69.1°F20.6°C 95% 7.6 mph NW12.2 kmh NW 12.1 mph19.5 kmh 29.41 in995.9 mb 0.03 in0.8 mm 0.00 in0.0 mm 0.75 in19.1 mm
11:20 AM 70.5°F21.4°C 68.7°F20.4°C 94% 9.2 mph WNW14.8 kmh WNW 14.5 mph23.3 kmh 29.41 in995.9 mb 0.03 in0.8 mm 0.00 in0.0 mm 0.75 in19.1 mm
11:25 AM 70.9°F21.6°C 68.8°F20.4°C 93% 9.6 mph W15.4 kmh W 14.5 mph23.3 kmh 29.40 in995.6 mb 0.03 in0.8 mm 0.00 in0.0 mm 0.75 in19.1 mm
11:30 AM 71.4°F21.9°C 69.3°F20.7°C 93% 9.3 mph WNW15.0 kmh WNW 13.6 mph21.9 kmh 29.40 in995.6 mb 0.02 in0.5 mm 0.00 in0.0 mm 0.75 in19.1 mm
11:35 AM 71.8°F22.1°C 69.0°F20.6°C 91% 9.9 mph WNW15.9 kmh WNW 14.5 mph23.3 kmh 29.40 in995.6 mb 0.02 in0.5 mm 0.00 in0.0 mm 0.75 in19.1 mm
11:40 AM 72.0°F22.2°C 69.2°F20.7°C 91% 9.1 mph WNW14.6 kmh WNW 14.5 mph23.3 kmh 29.39 in995.3 mb 0.02 in0.5 mm 0.00 in0.0 mm 0.75 in19.1 mm
11:45 AM 72.3°F22.4°C 69.3°F20.7°C 90% 8.1 mph WNW13.0 kmh WNW 10.7 mph17.2 kmh 29.40 in995.6 mb 0.02 in0.5 mm 0.00 in0.0 mm 0.75 in19.1 mm
11:50 AM 72.3°F22.4°C 68.9°F20.5°C 89% 8.5 mph WSW13.7 kmh WSW 13.6 mph21.9 kmh 29.40 in995.6 mb 0.00 in0.0 mm 0.00 in0.0 mm 0.75 in19.1 mm
11:55 AM 72.0°F22.2°C 68.6°F20.3°C 89% 8.2 mph WSW13.2 kmh WSW 13.6 mph21.9 kmh 29.40 in995.6 mb 0.00 in0.0 mm 0.00 in0.0 mm 0.75 in19.1 mm
12:00 PM 71.8°F22.1°C 68.7°F20.4°C 90% 6.4 mph W10.3 kmh W 9.2 mph14.8 kmh 29.40 in995.6 mb 0.00 in0.0 mm 0.00 in0.0 mm 0.75 in19.1 mm
12:05 PM 71.4°F21.9°C 68.4°F20.2°C 90% 6.7 mph WSW10.8 kmh WSW 9.8 mph15.8 kmh 29.40 in995.6 mb 0.00 in0.0 mm 0.00 in0.0 mm 0.75 in19.1 mm
12:10 PM 71.6°F22.0°C 68.9°F20.5°C 91% 6.3 mph WSW10.1 kmh WSW 9.8 mph15.8 kmh 29.40 in995.6 mb 0.00 in0.0 mm 0.00 in0.0 mm 0.75 in19.1 mm
12:15 PM 72.0°F22.2°C 69.2°F20.7°C 91% 5.3 mph WSW8.5 kmh WSW 7.6 mph12.2 kmh 29.40 in995.6 mb 0.00 in0.0 mm 0.00 in0.0 mm 0.75 in19.1 mm
12:20 PM 72.1°F22.3°C 69.1°F20.6°C 90% 6.3 mph W10.1 kmh W 10.7 mph17.2 kmh 29.41 in995.9 mb 0.00 in0.0 mm 0.00 in0.0 mm 0.75 in19.1 mm
12:25 PM 72.0°F22.2°C 68.2°F20.1°C 88% 7.4 mph SW11.9 kmh SW 13.0 mph20.9 kmh 29.41 in995.9 mb 0.00 in0.0 mm 0.00 in0.0 mm 0.75 in19.1 mm
12:30 PM 71.6°F22.0°C 67.2°F19.6°C 86% 10.0 mph WSW16.1 kmh WSW 19.7 mph31.7 kmh 29.42 in996.3 mb 0.00 in0.0 mm 0.00 in0.0 mm 0.75 in19.1 mm
12:35 PM 71.6°F22.0°C 67.6°F19.8°C 87% 11.1 mph WSW17.9 kmh WSW 19.7 mph31.7 kmh 29.41 in995.9 mb 0.00 in0.0 mm 0.00 in0.0 mm 0.75 in19.1 mm
12:40 PM 72.9°F22.7°C 68.5°F20.3°C 86% 9.2 mph W14.8 kmh W 19.7 mph31.7 kmh 29.41 in995.9 mb 0.00 in0.0 mm 0.00 in0.0 mm 0.75 in19.1 mm
12:45 PM 73.4°F23.0°C 68.3°F20.2°C 84% 9.6 mph W15.4 kmh W 15.2 mph24.5 kmh 29.41 in995.9 mb 0.00 in0.0 mm 0.00 in0.0 mm 0.75 in19.1 mm
12:50 PM 72.9°F22.7°C 67.8°F19.9°C 84% 9.3 mph W15.0 kmh W 15.2 mph24.5 kmh 29.41 in995.9 mb 0.00 in0.0 mm 0.00 in0.0 mm 0.75 in19.1 mm
12:55 PM 73.4°F23.0°C 68.0°F20.0°C 83% 9.7 mph WNW15.6 kmh WNW 16.8 mph27.0 kmh 29.41 in995.9 mb 0.00 in0.0 mm 0.00 in0.0 mm 0.75 in19.1 mm
01:00 PM 74.1°F23.4°C 67.6°F19.8°C 80% 12.0 mph WNW19.3 kmh WNW 16.8 mph27.0 kmh 29.41 in995.9 mb 0.00 in0.0 mm 0.00 in0.0 mm 0.75 in19.1 mm
01:05 PM 73.9°F23.3°C 67.8°F19.9°C 81% 9.1 mph W14.6 kmh W 16.8 mph27.0 kmh 29.41 in995.9 mb 0.00 in0.0 mm 0.00 in0.0 mm 0.75 in19.1 mm
01:10 PM 73.9°F23.3°C 67.8°F19.9°C 81% 6.4 mph W10.3 kmh W 10.7 mph17.2 kmh 29.41 in995.9 mb 0.00 in0.0 mm 0.00 in0.0 mm 0.75 in19.1 mm
01:15 PM 75.2°F24.0°C 68.6°F20.3°C 80% 7.6 mph WSW12.2 kmh WSW 12.1 mph19.5 kmh 29.42 in996.3 mb 0.00 in0.0 mm 0.00 in0.0 mm 0.75 in19.1 mm
01:20 PM 76.6°F24.8°C 68.9°F20.5°C 77% 7.4 mph WSW11.9 kmh WSW 12.1 mph19.5 kmh 29.42 in996.3 mb 0.00 in0.0 mm 0.00 in0.0 mm 0.75 in19.1 mm
01:25 PM 77.0°F25.0°C 68.9°F20.5°C 76% 5.9 mph WSW9.5 kmh WSW 11.4 mph18.3 kmh 29.42 in996.3 mb 0.00 in0.0 mm 0.00 in0.0 mm 0.75 in19.1 mm
01:30 PM 77.9°F25.5°C 69.4°F20.8°C 75% 5.9 mph WSW9.5 kmh WSW 12.1 mph19.5 kmh 29.42 in996.3 mb 0.00 in0.0 mm 0.00 in0.0 mm 0.75 in19.1 mm
01:35 PM 79.2°F26.2°C 69.4°F20.8°C 72% 8.8 mph WSW14.2 kmh WSW 15.9 mph25.6 kmh 29.41 in995.9 mb 0.00 in0.0 mm 0.00 in0.0 mm 0.75 in19.1 mm
01:40 PM 80.4°F26.9°C 69.4°F20.8°C 69% 11.4 mph W18.3 kmh W 15.9 mph25.6 kmh 29.41 in995.9 mb 0.00 in0.0 mm 0.00 in0.0 mm 0.75 in19.1 mm
01:45 PM 80.2°F26.8°C 68.3°F20.2°C 67% 11.3 mph WSW18.2 kmh WSW 17.4 mph28.0 kmh 29.41 in995.9 mb 0.00 in0.0 mm 0.00 in0.0 mm 0.75 in19.1 mm
01:50 PM 79.2°F26.2°C 67.3°F19.6°C 67% 11.9 mph WSW19.2 kmh WSW 19.0 mph30.6 kmh 29.41 in995.9 mb 0.00 in0.0 mm 0.00 in0.0 mm 0.75 in19.1 mm
01:55 PM 78.6°F25.9°C 67.6°F19.8°C 69% 9.4 mph WNW15.1 kmh WNW 19.0 mph30.6 kmh 29.41 in995.9 mb 0.00 in0.0 mm 0.00 in0.0 mm 0.75 in19.1 mm
02:00 PM 79.2°F26.2°C 68.6°F20.3°C 70% 7.3 mph WSW11.7 kmh WSW 14.5 mph23.3 kmh 29.41 in995.9 mb 0.00 in0.0 mm 0.00 in0.0 mm 0.75 in19.1 mm
02:05 PM 80.8°F27.1°C 68.8°F20.4°C 67% 8.6 mph WSW13.8 kmh WSW 14.5 mph23.3 kmh 29.41 in995.9 mb 0.00 in0.0 mm 0.00 in0.0 mm 0.75 in19.1 mm
02:10 PM 81.9°F27.7°C 69.0°F20.6°C 65% 8.4 mph WSW13.5 kmh WSW 20.6 mph33.2 kmh 29.41 in995.9 mb 0.00 in0.0 mm 0.00 in0.0 mm 0.75 in19.1 mm
02:15 PM 82.0°F27.8°C 68.3°F20.2°C 63% 11.0 mph W17.7 kmh W 20.6 mph33.2 kmh 29.41 in995.9 mb 0.00 in0.0 mm 0.00 in0.0 mm 0.75 in19.1 mm
02:20 PM 83.1°F28.4°C 68.3°F20.2°C 61% 11.3 mph WNW18.2 kmh WNW 20.6 mph33.2 kmh 29.40 in995.6 mb 0.00 in0.0 mm 0.00 in0.0 mm 0.75 in19.1 mm
02:25 PM 82.4°F28.0°C 67.7°F19.8°C 61% 10.2 mph W16.4 kmh W 17.4 mph28.0 kmh 29.41 in995.9 mb 0.00 in0.0 mm 0.00 in0.0 mm 0.75 in19.1 mm
02:30 PM 81.5°F27.5°C 67.3°F19.6°C 62% 10.3 mph SW16.6 kmh SW 17.4 mph28.0 kmh 29.41 in995.9 mb 0.00 in0.0 mm 0.00 in0.0 mm 0.75 in19.1 mm
02:35 PM 82.2°F27.9°C 67.0°F19.4°C 60% 8.9 mph SSW14.3 kmh SSW 15.2 mph24.5 kmh 29.41 in995.9 mb 0.00 in0.0 mm 0.00 in0.0 mm 0.75 in19.1 mm
02:40 PM 82.8°F28.2°C 67.0°F19.4°C 59% 9.5 mph SSW15.3 kmh SSW 15.2 mph24.5 kmh 29.41 in995.9 mb 0.00 in0.0 mm 0.00 in0.0 mm 0.75 in19.1 mm
02:45 PM 82.4°F28.0°C 66.2°F19.0°C 58% 10.4 mph WSW16.7 kmh WSW 17.4 mph28.0 kmh 29.42 in996.3 mb 0.00 in0.0 mm 0.00 in0.0 mm 0.75 in19.1 mm
02:50 PM 82.8°F28.2°C 65.5°F18.6°C 56% 9.0 mph W14.5 kmh W 17.4 mph28.0 kmh 29.43 in996.6 mb 0.00 in0.0 mm 0.00 in0.0 mm 0.75 in19.1 mm
02:55 PM 83.1°F28.4°C 65.3°F18.5°C 55% 7.1 mph WSW11.4 kmh WSW 12.1 mph19.5 kmh 29.43 in996.6 mb 0.00 in0.0 mm 0.00 in0.0 mm 0.75 in19.1 mm
03:00 PM 83.5°F28.6°C 64.1°F17.8°C 52% 9.2 mph W14.8 kmh W 14.5 mph23.3 kmh 29.42 in996.3 mb 0.00 in0.0 mm 0.00 in0.0 mm 0.75 in19.1 mm
03:05 PM 83.3°F28.5°C 64.4°F18.0°C 53% 9.5 mph W15.3 kmh W 14.5 mph23.3 kmh 29.43 in996.6 mb 0.00 in0.0 mm 0.00 in0.0 mm 0.75 in19.1 mm
03:10 PM 82.9°F28.3°C 64.1°F17.8°C 53% 9.1 mph SW14.6 kmh SW 14.5 mph23.3 kmh 29.43 in996.6 mb 0.00 in0.0 mm 0.00 in0.0 mm 0.75 in19.1 mm
03:15 PM 82.6°F28.1°C 61.5°F16.4°C 49% 10.4 mph W16.7 kmh W 18.3 mph29.5 kmh 29.44 in997.0 mb 0.00 in0.0 mm 0.00 in0.0 mm 0.75 in19.1 mm
03:20 PM 81.9°F27.7°C 62.0°F16.7°C 51% 12.0 mph W19.3 kmh W 18.3 mph29.5 kmh 29.44 in997.0 mb 0.00 in0.0 mm 0.00 in0.0 mm 0.75 in19.1 mm
03:25 PM 81.3°F27.4°C 62.1°F16.7°C 52% 12.8 mph W20.6 kmh W 18.3 mph29.5 kmh 29.44 in997.0 mb 0.00 in0.0 mm 0.00 in0.0 mm 0.75 in19.1 mm
03:30 PM 81.5°F27.5°C 63.3°F17.4°C 54% 10.4 mph W16.7 kmh W 16.8 mph27.0 kmh 29.44 in997.0 mb 0.00 in0.0 mm 0.00 in0.0 mm 0.75 in19.1 mm
03:35 PM 81.9°F27.7°C 62.6°F17.0°C 52% 11.3 mph WSW18.2 kmh WSW 19.7 mph31.7 kmh 29.43 in996.6 mb 0.00 in0.0 mm 0.00 in0.0 mm 0.75 in19.1 mm
03:40 PM 81.1°F27.3°C 61.9°F16.6°C 52% 12.7 mph WSW20.4 kmh WSW 19.7 mph31.7 kmh 29.44 in997.0 mb 0.00 in0.0 mm 0.00 in0.0 mm 0.75 in19.1 mm
03:45 PM 81.3°F27.4°C 62.1°F16.7°C 52% 9.2 mph S14.8 kmh S 15.2 mph24.5 kmh 29.44 in997.0 mb 0.00 in0.0 mm 0.00 in0.0 mm 0.75 in19.1 mm
03:50 PM 81.5°F27.5°C 61.1°F16.2°C 50% 9.4 mph W15.1 kmh W 15.9 mph25.6 kmh 29.44 in997.0 mb 0.00 in0.0 mm 0.00 in0.0 mm 0.75 in19.1 mm
03:55 PM 80.6°F27.0°C 61.4°F16.3°C 52% 12.5 mph WNW20.1 kmh WNW 17.4 mph28.0 kmh 29.45 in997.3 mb 0.00 in0.0 mm 0.00 in0.0 mm 0.75 in19.1 mm
04:00 PM 81.1°F27.3°C 61.9°F16.6°C 52% 10.0 mph WNW16.1 kmh WNW 17.4 mph28.0 kmh 29.45 in997.3 mb 0.00 in0.0 mm 0.00 in0.0 mm 0.75 in19.1 mm
04:05 PM 80.6°F27.0°C 61.9°F16.6°C 53% 7.3 mph W11.7 kmh W 13.6 mph21.9 kmh 29.45 in997.3 mb 0.00 in0.0 mm 0.00 in0.0 mm 0.75 in19.1 mm
04:10 PM 80.6°F27.0°C 61.4°F16.3°C 52% 8.1 mph W13.0 kmh W 13.6 mph21.9 kmh 29.46 in997.6 mb 0.00 in0.0 mm 0.00 in0.0 mm 0.75 in19.1 mm
04:15 PM 80.1°F26.7°C 61.4°F16.3°C 53% 9.5 mph W15.3 kmh W 17.4 mph28.0 kmh 29.46 in997.6 mb 0.00 in0.0 mm 0.00 in0.0 mm 0.75 in19.1 mm
04:20 PM 79.0°F26.1°C 59.9°F15.5°C 52% 11.9 mph W19.2 kmh W 21.3 mph34.3 kmh 29.46 in997.6 mb 0.00 in0.0 mm 0.00 in0.0 mm 0.75 in19.1 mm
04:25 PM 78.3°F25.7°C 59.2°F15.1°C 52% 12.9 mph W20.8 kmh W 21.3 mph34.3 kmh 29.46 in997.6 mb 0.00 in0.0 mm 0.00 in0.0 mm 0.75 in19.1 mm
04:30 PM 77.7°F25.4°C 59.8°F15.4°C 54% 12.4 mph WNW20.0 kmh WNW 15.2 mph24.5 kmh 29.46 in997.6 mb 0.00 in0.0 mm 0.00 in0.0 mm 0.75 in19.1 mm
04:35 PM 77.5°F25.3°C 60.1°F15.6°C 55% 11.6 mph WNW18.7 kmh WNW 19.7 mph31.7 kmh 29.46 in997.6 mb 0.00 in0.0 mm 0.00 in0.0 mm 0.75 in19.1 mm
04:40 PM 77.5°F25.3°C 59.1°F15.1°C 53% 11.7 mph W18.8 kmh W 19.7 mph31.7 kmh 29.46 in997.6 mb 0.00 in0.0 mm 0.00 in0.0 mm 0.75 in19.1 mm
04:45 PM 77.4°F25.2°C 59.5°F15.3°C 54% 11.4 mph WSW18.3 kmh WSW 19.7 mph31.7 kmh 29.47 in998.0 mb 0.00 in0.0 mm 0.00 in0.0 mm 0.75 in19.1 mm
04:50 PM 77.7°F25.4°C 59.8°F15.4°C 54% 9.4 mph W15.1 kmh W 19.7 mph31.7 kmh 29.47 in998.0 mb 0.00 in0.0 mm 0.00 in0.0 mm 0.75 in19.1 mm
04:55 PM 77.9°F25.5°C 59.4°F15.2°C 53% 8.0 mph NW12.9 kmh NW 11.4 mph18.3 kmh 29.47 in998.0 mb 0.00 in0.0 mm 0.00 in0.0 mm 0.75 in19.1 mm
05:00 PM 77.4°F25.2°C 58.9°F14.9°C 53% 8.9 mph W14.3 kmh W 13.6 mph21.9 kmh 29.47 in998.0 mb 0.00 in0.0 mm 0.00 in0.0 mm 0.75 in19.1 mm
05:05 PM 77.0°F25.0°C 58.6°F14.8°C 53% 11.2 mph W18.0 kmh W 17.4 mph28.0 kmh 29.47 in998.0 mb 0.00 in0.0 mm 0.00 in0.0 mm 0.75 in19.1 mm
05:10 PM 76.8°F24.9°C 59.0°F15.0°C 54% 11.2 mph WNW18.0 kmh WNW 17.4 mph28.0 kmh 29.48 in998.3 mb 0.00 in0.0 mm 0.00 in0.0 mm 0.75 in19.1 mm
05:15 PM 76.8°F24.9°C 58.4°F14.7°C 53% 9.5 mph W15.3 kmh W 16.8 mph27.0 kmh 29.48 in998.3 mb 0.00 in0.0 mm 0.00 in0.0 mm 0.75 in19.1 mm
05:20 PM 76.8°F24.9°C 59.0°F15.0°C 54% 10.8 mph WSW17.4 kmh WSW 17.4 mph28.0 kmh 29.48 in998.3 mb 0.00 in0.0 mm 0.00 in0.0 mm 0.75 in19.1 mm
05:25 PM 76.8°F24.9°C 58.4°F14.7°C 53% 11.6 mph W18.7 kmh W 19.7 mph31.7 kmh 29.48 in998.3 mb 0.00 in0.0 mm 0.00 in0.0 mm 0.75 in19.1 mm
05:30 PM 76.3°F24.6°C 57.9°F14.4°C 53% 11.6 mph W18.7 kmh W 19.7 mph31.7 kmh 29.48 in998.3 mb 0.00 in0.0 mm 0.00 in0.0 mm 0.75 in19.1 mm
05:35 PM 76.3°F24.6°C 58.5°F14.7°C 54% 9.9 mph W15.9 kmh W 19.7 mph31.7 kmh 29.49 in998.6 mb 0.00 in0.0 mm 0.00 in0.0 mm 0.75 in19.1 mm
05:40 PM 75.9°F24.4°C 58.1°F14.5°C 54% 8.3 mph WNW13.4 kmh WNW 19.7 mph31.7 kmh 29.50 in999.0 mb 0.00 in0.0 mm 0.00 in0.0 mm 0.75 in19.1 mm
05:45 PM 76.1°F24.5°C 58.3°F14.6°C 54% 7.3 mph WNW11.7 kmh WNW 19.7 mph31.7 kmh 29.50 in999.0 mb 0.00 in0.0 mm 0.00 in0.0 mm 0.75 in19.1 mm
05:50 PM 76.1°F24.5°C 58.3°F14.6°C 54% 6.3 mph W10.1 kmh W 13.6 mph21.9 kmh 29.50 in999.0 mb 0.00 in0.0 mm 0.00 in0.0 mm 0.75 in19.1 mm
05:55 PM 75.9°F24.4°C 58.6°F14.8°C 55% 6.6 mph W10.6 kmh W 13.6 mph21.9 kmh 29.50 in999.0 mb 0.00 in0.0 mm 0.00 in0.0 mm 0.75 in19.1 mm
06:00 PM 76.1°F24.5°C 58.3°F14.6°C 54% 5.9 mph W9.5 kmh W 14.5 mph23.3 kmh 29.51 in999.3 mb 0.00 in0.0 mm 0.00 in0.0 mm 0.75 in19.1 mm
06:05 PM 75.7°F24.3°C 57.9°F14.4°C 54% 6.5 mph SW10.5 kmh SW 14.5 mph23.3 kmh 29.51 in999.3 mb 0.00 in0.0 mm 0.00 in0.0 mm 0.75 in19.1 mm
06:10 PM 75.0°F23.9°C 57.3°F14.1°C 54% 7.1 mph SSW11.4 kmh SSW 11.4 mph18.3 kmh 29.51 in999.3 mb 0.00 in0.0 mm 0.00 in0.0 mm 0.75 in19.1 mm
06:15 PM 74.5°F23.6°C 56.3°F13.5°C 53% 7.3 mph SW11.7 kmh SW 11.4 mph18.3 kmh 29.52 in999.7 mb 0.00 in0.0 mm 0.00 in0.0 mm 0.75 in19.1 mm
06:20 PM 74.1°F23.4°C 56.4°F13.6°C 54% 7.3 mph S11.7 kmh S 10.7 mph17.2 kmh 29.52 in999.7 mb 0.00 in0.0 mm 0.00 in0.0 mm 0.75 in19.1 mm
06:25 PM 73.8°F23.2°C 56.6°F13.7°C 55% 6.5 mph SW10.5 kmh SW 9.8 mph15.8 kmh 29.52 in999.7 mb 0.00 in0.0 mm 0.00 in0.0 mm 0.75 in19.1 mm
06:30 PM 73.2°F22.9°C 55.1°F12.8°C 53% 6.0 mph W9.7 kmh W 9.8 mph15.8 kmh 29.54 in1000.3 mb 0.00 in0.0 mm 0.00 in0.0 mm 0.75 in19.1 mm
06:35 PM 72.7°F22.6°C 54.6°F12.6°C 53% 6.4 mph W10.3 kmh W 11.4 mph18.3 kmh 29.53 in1000.0 mb 0.00 in0.0 mm 0.00 in0.0 mm 0.75 in19.1 mm
06:40 PM 72.1°F22.3°C 54.6°F12.6°C 54% 6.5 mph W10.5 kmh W 11.4 mph18.3 kmh 29.54 in1000.3 mb 0.00 in0.0 mm 0.00 in0.0 mm 0.75 in19.1 mm
06:45 PM 71.8°F22.1°C 54.3°F12.4°C 54% 6.0 mph W9.7 kmh W 10.7 mph17.2 kmh 29.54 in1000.3 mb 0.00 in0.0 mm 0.00 in0.0 mm 0.75 in19.1 mm
06:50 PM 71.2°F21.8°C 54.3°F12.4°C 55% 6.9 mph WSW11.1 kmh WSW 12.1 mph19.5 kmh 29.54 in1000.3 mb 0.00 in0.0 mm 0.00 in0.0 mm 0.75 in19.1 mm
06:55 PM 70.9°F21.6°C 53.9°F12.2°C 55% 9.2 mph W14.8 kmh W 15.2 mph24.5 kmh 29.55 in1000.7 mb 0.00 in0.0 mm 0.00 in0.0 mm 0.75 in19.1 mm
07:00 PM 70.3°F21.3°C 53.4°F11.9°C 55% 8.3 mph W13.4 kmh W 15.2 mph24.5 kmh 29.55 in1000.7 mb 0.00 in0.0 mm 0.00 in0.0 mm 0.75 in19.1 mm
07:05 PM 70.0°F21.1°C 53.1°F11.7°C 55% 6.5 mph SW10.5 kmh SW 9.2 mph14.8 kmh 29.55 in1000.7 mb 0.00 in0.0 mm 0.00 in0.0 mm 0.75 in19.1 mm
07:10 PM 69.8°F21.0°C 53.4°F11.9°C 56% 6.8 mph SSW10.9 kmh SSW 10.7 mph17.2 kmh 29.55 in1000.7 mb 0.00 in0.0 mm 0.00 in0.0 mm 0.75 in19.1 mm
07:15 PM 69.6°F20.9°C 53.3°F11.8°C 56% 6.8 mph N10.9 kmh N 10.7 mph17.2 kmh 29.56 in1001.0 mb 0.00 in0.0 mm 0.00 in0.0 mm 0.75 in19.1 mm
07:20 PM 69.3°F20.7°C 53.4°F11.9°C 57% 6.0 mph ESE9.7 kmh ESE 9.8 mph15.8 kmh 29.56 in1001.0 mb 0.00 in0.0 mm 0.00 in0.0 mm 0.75 in19.1 mm
07:25 PM 69.1°F20.6°C 52.7°F11.5°C 56% 5.9 mph W9.5 kmh W 10.7 mph17.2 kmh 29.57 in1001.4 mb 0.00 in0.0 mm 0.00 in0.0 mm 0.75 in19.1 mm
07:30 PM 68.9°F20.5°C 53.1°F11.7°C 57% 5.7 mph W9.2 kmh W 10.7 mph17.2 kmh 29.57 in1001.4 mb 0.00 in0.0 mm 0.00 in0.0 mm 0.75 in19.1 mm
07:35 PM 68.7°F20.4°C 52.9°F11.6°C 57% 5.1 mph SSW8.2 kmh SSW 10.7 mph17.2 kmh 29.58 in1001.7 mb 0.00 in0.0 mm 0.00 in0.0 mm 0.75 in19.1 mm
07:40 PM 68.7°F20.4°C 52.9°F11.6°C 57% 5.2 mph S8.4 kmh S 6.9 mph11.1 kmh 29.58 in1001.7 mb 0.00 in0.0 mm 0.00 in0.0 mm 0.75 in19.1 mm
07:45 PM 68.4°F20.2°C 53.0°F11.7°C 58% 5.2 mph SSE8.4 kmh SSE 9.8 mph15.8 kmh 29.58 in1001.7 mb 0.00 in0.0 mm 0.00 in0.0 mm 0.75 in19.1 mm
07:50 PM 68.2°F20.1°C 52.9°F11.6°C 58% 5.5 mph SSW8.9 kmh SSW 9.8 mph15.8 kmh 29.58 in1001.7 mb 0.00 in0.0 mm 0.00 in0.0 mm 0.75 in19.1 mm
07:55 PM 67.8°F19.9°C 52.5°F11.4°C 58% 5.1 mph SW8.2 kmh SW 9.8 mph15.8 kmh 29.58 in1001.7 mb 0.00 in0.0 mm 0.00 in0.0 mm 0.75 in19.1 mm
08:00 PM 67.8°F19.9°C 53.0°F11.7°C 59% 4.2 mph SSW6.8 kmh SSW 5.4 mph8.7 kmh 29.59 in1002.0 mb 0.00 in0.0 mm 0.00 in0.0 mm 0.75 in19.1 mm
08:05 PM 67.6°F19.8°C 52.8°F11.6°C 59% 3.9 mph S6.3 kmh S 5.4 mph8.7 kmh 29.59 in1002.0 mb 0.00 in0.0 mm 0.00 in0.0 mm 0.75 in19.1 mm
08:10 PM 67.5°F19.7°C 52.7°F11.5°C 59% 4.4 mph S7.1 kmh S 6.9 mph11.1 kmh 29.59 in1002.0 mb 0.00 in0.0 mm 0.00 in0.0 mm 0.75 in19.1 mm
08:15 PM 67.3°F19.6°C 52.5°F11.4°C 59% 5.6 mph SW9.0 kmh SW 9.2 mph14.8 kmh 29.59 in1002.0 mb 0.00 in0.0 mm 0.00 in0.0 mm 0.75 in19.1 mm
08:20 PM 66.9°F19.4°C 52.6°F11.4°C 60% 5.6 mph SW9.0 kmh SW 9.2 mph14.8 kmh 29.59 in1002.0 mb 0.00 in0.0 mm 0.00 in0.0 mm 0.75 in19.1 mm
08:25 PM 66.7°F19.3°C 52.4°F11.3°C 60% 4.3 mph SSW6.9 kmh SSW 6.9 mph11.1 kmh 29.59 in1002.0 mb 0.00 in0.0 mm 0.00 in0.0 mm 0.75 in19.1 mm
08:30 PM 66.6°F19.2°C 52.3°F11.3°C 60% 3.4 mph W5.5 kmh W 6.9 mph11.1 kmh 29.59 in1002.0 mb 0.00 in0.0 mm 0.00 in0.0 mm 0.75 in19.1 mm
08:35 PM 66.4°F19.1°C 52.1°F11.2°C 60% 3.8 mph WSW6.1 kmh WSW 7.6 mph12.2 kmh 29.59 in1002.0 mb 0.00 in0.0 mm 0.00 in0.0 mm 0.75 in19.1 mm
08:40 PM 66.2°F19.0°C 51.9°F11.1°C 60% 4.1 mph W6.6 kmh W 7.6 mph12.2 kmh 29.60 in1002.4 mb 0.00 in0.0 mm 0.00 in0.0 mm 0.75 in19.1 mm
08:45 PM 66.2°F19.0°C 51.9°F11.1°C 60% 4.0 mph W6.4 kmh W 6.9 mph11.1 kmh 29.61 in1002.7 mb 0.00 in0.0 mm 0.00 in0.0 mm 0.75 in19.1 mm
08:50 PM 66.0°F18.9°C 52.2°F11.2°C 61% 5.0 mph WSW8.0 kmh WSW 6.9 mph11.1 kmh 29.60 in1002.4 mb 0.00 in0.0 mm 0.00 in0.0 mm 0.75 in19.1 mm
08:55 PM 65.8°F18.8°C 52.0°F11.1°C 61% 5.7 mph WSW9.2 kmh WSW 7.6 mph12.2 kmh 29.60 in1002.4 mb 0.00 in0.0 mm 0.00 in0.0 mm 0.75 in19.1 mm
09:00 PM 65.5°F18.6°C 52.1°F11.2°C 62% 5.7 mph WSW9.2 kmh WSW 7.6 mph12.2 kmh 29.61 in1002.7 mb 0.00 in0.0 mm 0.00 in0.0 mm 0.75 in19.1 mm
09:05 PM 65.3°F18.5°C 52.0°F11.1°C 62% 4.9 mph WSW7.9 kmh WSW 7.6 mph12.2 kmh 29.62 in1003.0 mb 0.00 in0.0 mm 0.00 in0.0 mm 0.75 in19.1 mm
09:10 PM 65.3°F18.5°C 52.4°F11.3°C 63% 4.3 mph WSW6.9 kmh WSW 6.0 mph9.7 kmh 29.62 in1003.0 mb 0.00 in0.0 mm 0.00 in0.0 mm 0.75 in19.1 mm
09:15 PM 64.9°F18.3°C 52.1°F11.2°C 63% 4.7 mph W7.6 kmh W 6.9 mph11.1 kmh 29.62 in1003.0 mb 0.00 in0.0 mm 0.00 in0.0 mm 0.75 in19.1 mm
09:20 PM 64.8°F18.2°C 51.9°F11.1°C 63% 4.4 mph W7.1 kmh W 6.9 mph11.1 kmh 29.62 in1003.0 mb 0.00 in0.0 mm 0.00 in0.0 mm 0.75 in19.1 mm
09:25 PM 64.6°F18.1°C 52.1°F11.2°C 64% 4.8 mph W7.7 kmh W 7.6 mph12.2 kmh 29.62 in1003.0 mb 0.00 in0.0 mm 0.00 in0.0 mm 0.75 in19.1 mm
09:30 PM 64.2°F17.9°C 51.8°F11.0°C 64% 5.2 mph W8.4 kmh W 7.6 mph12.2 kmh 29.63 in1003.4 mb 0.00 in0.0 mm 0.00 in0.0 mm 0.75 in19.1 mm
09:35 PM 64.2°F17.9°C 52.2°F11.2°C 65% 5.1 mph W8.2 kmh W 8.3 mph13.4 kmh 29.62 in1003.0 mb 0.00 in0.0 mm 0.00 in0.0 mm 0.75 in19.1 mm
09:40 PM 63.9°F17.7°C 51.9°F11.1°C 65% 5.9 mph W9.5 kmh W 8.3 mph13.4 kmh 29.62 in1003.0 mb 0.00 in0.0 mm 0.00 in0.0 mm 0.75 in19.1 mm
09:45 PM 63.9°F17.7°C 51.9°F11.1°C 65% 7.2 mph W11.6 kmh W 10.7 mph17.2 kmh 29.63 in1003.4 mb 0.00 in0.0 mm 0.00 in0.0 mm 0.75 in19.1 mm
09:50 PM 63.9°F17.7°C 51.9°F11.1°C 65% 6.6 mph WSW10.6 kmh WSW 10.7 mph17.2 kmh 29.63 in1003.4 mb 0.00 in0.0 mm 0.00 in0.0 mm 0.75 in19.1 mm
09:55 PM 63.7°F17.6°C 51.7°F10.9°C 65% 4.7 mph W7.6 kmh W 8.3 mph13.4 kmh 29.64 in1003.7 mb 0.00 in0.0 mm 0.00 in0.0 mm 0.75 in19.1 mm
10:00 PM 63.7°F17.6°C 51.7°F10.9°C 65% 3.7 mph W6.0 kmh W 6.0 mph9.7 kmh 29.63 in1003.4 mb 0.00 in0.0 mm 0.00 in0.0 mm 0.75 in19.1 mm
10:05 PM 63.9°F17.7°C 52.3°F11.3°C 66% 2.3 mph WSW3.7 kmh WSW 6.0 mph9.7 kmh 29.64 in1003.7 mb 0.00 in0.0 mm 0.00 in0.0 mm 0.75 in19.1 mm
10:10 PM 63.7°F17.6°C 51.7°F10.9°C 65% 1.3 mph SW2.1 kmh SW 2.2 mph3.5 kmh 29.65 in1004.1 mb 0.00 in0.0 mm 0.00 in0.0 mm 0.75 in19.1 mm
10:15 PM 63.7°F17.6°C 51.7°F10.9°C 65% 1.6 mph SW2.6 kmh SW 3.1 mph5.0 kmh 29.65 in1004.1 mb 0.00 in0.0 mm 0.00 in0.0 mm 0.75 in19.1 mm
10:20 PM 63.7°F17.6°C 51.7°F10.9°C 65% 2.0 mph SW3.2 kmh SW 3.8 mph6.1 kmh 29.65 in1004.1 mb 0.00 in0.0 mm 0.00 in0.0 mm 0.75 in19.1 mm
10:25 PM 63.7°F17.6°C 51.7°F10.9°C 65% 1.7 mph SW2.7 kmh SW 3.8 mph6.1 kmh 29.65 in1004.1 mb 0.00 in0.0 mm 0.00 in0.0 mm 0.75 in19.1 mm
10:30 PM 63.7°F17.6°C 51.7°F10.9°C 65% 1.2 mph S1.9 kmh S 2.2 mph3.5 kmh 29.65 in1004.1 mb 0.00 in0.0 mm 0.00 in0.0 mm 0.75 in19.1 mm
10:35 PM 63.1°F17.3°C 51.6°F10.9°C 66% 2.5 mph N4.0 kmh N 4.5 mph7.2 kmh 29.65 in1004.1 mb 0.00 in0.0 mm 0.00 in0.0 mm 0.75 in19.1 mm
10:40 PM 63.0°F17.2°C 51.8°F11.0°C 67% 2.5 mph N4.0 kmh N 4.5 mph7.2 kmh 29.65 in1004.1 mb 0.00 in0.0 mm 0.00 in0.0 mm 0.75 in19.1 mm
10:45 PM 63.1°F17.3°C 52.0°F11.1°C 67% 1.1 mph NW1.8 kmh NW 2.2 mph3.5 kmh 29.66 in1004.4 mb 0.00 in0.0 mm 0.00 in0.0 mm 0.75 in19.1 mm
10:50 PM 63.1°F17.3°C 52.0°F11.1°C 67% 0.6 mph WNW1.0 kmh WNW 1.6 mph2.6 kmh 29.66 in1004.4 mb 0.00 in0.0 mm 0.00 in0.0 mm 0.75 in19.1 mm
10:55 PM 63.0°F17.2°C 51.8°F11.0°C 67% 0.2 mph WSW0.3 kmh WSW 1.6 mph2.6 kmh 29.66 in1004.4 mb 0.00 in0.0 mm 0.00 in0.0 mm 0.75 in19.1 mm
11:00 PM 62.4°F16.9°C 51.3°F10.7°C 67% 0.5 mph SW0.8 kmh SW 1.6 mph2.6 kmh 29.67 in1004.7 mb 0.00 in0.0 mm 0.00 in0.0 mm 0.62 in15.7 mm
11:05 PM 62.2°F16.8°C 51.2°F10.7°C 67% 1.3 mph SW2.1 kmh SW 2.2 mph3.5 kmh 29.68 in1005.1 mb 0.00 in0.0 mm 0.00 in0.0 mm 0.62 in15.7 mm
11:10 PM 62.1°F16.7°C 51.4°F10.8°C 68% 1.2 mph WSW1.9 kmh WSW 2.2 mph3.5 kmh 29.67 in1004.7 mb 0.00 in0.0 mm 0.00 in0.0 mm 0.62 in15.7 mm
11:15 PM 62.1°F16.7°C 51.4°F10.8°C 68% 1.1 mph SW1.8 kmh SW 2.2 mph3.5 kmh 29.68 in1005.1 mb 0.00 in0.0 mm 0.00 in0.0 mm 0.62 in15.7 mm
11:20 PM 62.2°F16.8°C 51.6°F10.9°C 68% 1.4 mph SSE2.3 kmh SSE 2.2 mph3.5 kmh 29.68 in1005.1 mb 0.00 in0.0 mm 0.00 in0.0 mm 0.62 in15.7 mm
11:25 PM 62.1°F16.7°C 51.8°F11.0°C 69% 1.3 mph SE2.1 kmh SE 1.6 mph2.6 kmh 29.68 in1005.1 mb 0.00 in0.0 mm 0.00 in0.0 mm 0.62 in15.7 mm
11:30 PM 61.7°F16.5°C 51.8°F11.0°C 70% 0.9 mph SSE1.4 kmh SSE 1.6 mph2.6 kmh 29.68 in1005.1 mb 0.00 in0.0 mm 0.00 in0.0 mm 0.62 in15.7 mm
11:35 PM 61.3°F16.3°C 51.5°F10.8°C 70% 1.0 mph WSW1.6 kmh WSW 3.1 mph5.0 kmh 29.69 in1005.4 mb 0.00 in0.0 mm 0.00 in0.0 mm 0.62 in15.7 mm
11:40 PM 61.2°F16.2°C 51.7°F10.9°C 71% 1.6 mph W2.6 kmh W 3.1 mph5.0 kmh 29.69 in1005.4 mb 0.00 in0.0 mm 0.00 in0.0 mm 0.62 in15.7 mm
11:45 PM 61.2°F16.2°C 50.9°F10.5°C 69% 2.3 mph W3.7 kmh W 3.8 mph6.1 kmh 29.70 in1005.8 mb 0.00 in0.0 mm 0.00 in0.0 mm 0.62 in15.7 mm
11:50 PM 61.2°F16.2°C 50.9°F10.5°C 69% 2.7 mph W4.3 kmh W 3.8 mph6.1 kmh 29.70 in1005.8 mb 0.00 in0.0 mm 0.00 in0.0 mm 0.62 in15.7 mm
11:55 PM 61.0°F16.1°C 50.8°F10.4°C 69% 2.8 mph W4.5 kmh W 5.4 mph8.7 kmh 29.69 in1005.4 mb 0.00 in0.0 mm 0.00 in0.0 mm 0.62 in15.7 mm